Main page
METAR-TAF:

METAR-TAF

Airports :

Ljungbyheds flygplats

Ljungbyhed, Sweden

latitude: 56-04N, longitude: 013-12E, elevation: 43 m

Current weather observation

The report was made 30 minutes ago, at 08:20 UTC
Wind 10 kt from the Southwest
Temperature 11°C
Humidity 94%
Pressure 1018 hPa
Visibility 10 km or more

METAR: ESTL 130820Z AUTO 22010KT 9999 FEW011/// OVC023/// 11/10 Q1018

Time: 10:50 (08:50 UTC)

Forecast

The report was made 21 hours and 35 minutes ago, at 11:15 UTC
Forecast valid from 12 at 12 UTC to 12 at 15 UTC
Wind 10 kt from the Southwest
Visibility 10 km or more
Broken clouds at a height of 1000 ft
Temporary
from 12 at 12 UTC to 12 at 15 UTC
Visibility: 4000 m
Broken clouds at a height of 600 ft
light rain, drizzle, mist,

TAF: ESTL 121115Z 1212/1215 22010KT 9999 BKN010 TEMPO 1212/1215 4000 -RADZ BR BKN006

Weather observations and forecasts of more than 4000 airports (METAR and TAF reports).

The available stations are represented by yellow and red dots on the map.

Hover mouse over dot to see the name of the station.

Then click to see weather observations and forecasts.

To change the map : click on the green buttons with a black cross to zoom in, on the green button with a dash to zoom out, or on the green arrows for adjacent maps.


METAR-TAF: